Time;durP1;ratioP1;P1;durP2;ratioP2;P2;SDS_P1;SDS_P2;PMS_P1;PMS_P2;Temp;Humidity;BMP_temperature;BMP_pressure;BME280_temperature;BME280_humidity;BME280_pressure;Samples;Min_cycle;Max_cycle;Signal;HPM_P1;HPM_P2
2022/06/24 00:00:12;;;;;;;5.15;2.77;;;;;;;19.67;61.42;100225.44;1742090;80;21043;-58
2022/06/24 00:02:39;;;;;;;5.65;3.00;;;;;;;19.64;61.45;100219.13;1731248;81;21125;-58
2022/06/24 00:05:10;;;;;;;7.08;3.30;;;;;;;19.64;61.53;100223.14;1737051;80;21528;-58
2022/06/24 00:07:49;;;;;;;8.53;2.77;;;;;;;19.61;61.74;100220.84;1737163;80;21066;-58
2022/06/24 00:10:22;;;;;;;7.22;2.92;;;;;;;19.63;61.87;100220.13;1743452;80;21089;-58
2022/06/24 00:12:50;;;;;;;8.45;3.02;;;;;;;19.67;61.89;100224.92;1738354;80;21082;-58
2022/06/24 00:15:25;;;;;;;7.37;2.60;;;;;;;19.69;61.88;100223.41;1754851;80;21120;-58
2022/06/24 00:17:52;;;;;;;13.88;3.00;;;;;;;19.68;61.91;100224.41;1742065;80;21058;-58
2022/06/24 00:20:19;;;;;;;5.83;2.60;;;;;;;19.65;61.95;100222.11;1736219;80;21551;-58
2022/06/24 00:22:48;;;;;;;6.55;3.02;;;;;;;19.61;62.33;100218.17;1740833;80;21051;-58
2022/06/24 00:25:24;;;;;;;7.90;2.70;;;;;;;19.57;62.71;100211.53;1746461;80;21098;-58
2022/06/24 00:28:03;;;;;;;6.65;2.92;;;;;;;19.57;62.76;100217.72;1733744;80;21722;-58
2022/06/24 00:30:44;;;;;;;5.45;2.58;;;;;;;19.57;63.00;100215.53;1731129;80;21061;-58
2022/06/24 00:33:21;;;;;;;6.08;3.37;;;;;;;19.54;63.10;100215.93;1746331;80;21642;-58
2022/06/24 00:35:56;;;;;;;6.72;2.90;;;;;;;19.50;63.07;100207.44;1728114;80;21102;-59
2022/06/24 00:38:30;;;;;;;7.37;2.97;;;;;;;19.45;62.80;100216.02;1733142;80;21078;-58
2022/06/24 00:41:10;;;;;;;6.65;2.80;;;;;;;19.42;62.88;100212.39;1749920;80;21407;-59
2022/06/24 00:43:46;;;;;;;5.72;2.55;;;;;;;19.45;62.31;100203.16;1735118;80;21618;-58
2022/06/24 00:46:19;;;;;;;4.83;2.50;;;;;;;19.44;62.04;100210.35;1737557;80;21074;-58
2022/06/24 00:48:57;;;;;;;5.47;2.50;;;;;;;19.42;61.86;100199.56;1742705;80;21122;-59
2022/06/24 00:51:27;;;;;;;4.17;2.17;;;;;;;19.41;61.86;100201.89;1734117;80;21059;-59
2022/06/24 00:53:56;;;;;;;5.03;2.58;;;;;;;19.39;61.82;100202.59;1717517;81;21155;-59
2022/06/24 00:56:25;;;;;;;4.97;2.42;;;;;;;19.43;61.56;100203.87;1731150;80;21058;-59
2022/06/24 00:58:57;;;;;;;7.35;2.92;;;;;;;19.46;61.00;100202.98;1728734;80;21095;-59
2022/06/24 01:01:36;;;;;;;6.25;2.45;;;;;;;19.48;61.32;100203.65;1729255;80;21474;-59
2022/06/24 01:04:05;;;;;;;5.42;2.47;;;;;;;19.50;61.54;100210.11;1726440;80;21506;-59
2022/06/24 01:06:33;;;;;;;6.37;2.92;;;;;;;19.49;61.94;100211.95;1733488;80;21765;-59
2022/06/24 01:08:59;;;;;;;7.85;2.62;;;;;;;19.49;62.44;100210.63;1735839;80;22833;-58
2022/06/24 01:11:40;;;;;;;8.33;3.12;;;;;;;19.53;62.68;100215.59;1733632;81;21130;-59
2022/06/24 01:14:07;;;;;;;7.20;3.42;;;;;;;19.51;62.63;100217.63;1729190;80;21086;-58
2022/06/24 01:16:33;;;;;;;5.55;2.98;;;;;;;19.48;62.46;100219.66;1722476;80;21112;-58
2022/06/24 01:19:03;;;;;;;6.87;2.70;;;;;;;19.43;62.22;100218.05;1734496;80;21175;-59
2022/06/24 01:21:36;;;;;;;6.87;2.72;;;;;;;19.38;62.08;100212.93;1726938;80;21063;-58
2022/06/24 01:24:21;;;;;;;5.45;2.50;;;;;;;19.38;62.10;100221.75;1731967;80;21405;-59
2022/06/24 01:26:51;;;;;;;5.08;2.72;;;;;;;19.41;62.17;100217.91;1725650;80;21075;-58
2022/06/24 01:29:19;;;;;;;6.10;3.27;;;;;;;19.39;62.32;100215.94;1731674;80;21107;-59
2022/06/24 01:31:49;;;;;;;7.20;2.98;;;;;;;19.39;62.26;100217.27;1728456;80;21757;-58
2022/06/24 01:34:17;;;;;;;5.60;2.70;;;;;;;19.35;62.29;100212.81;1728968;80;21526;-59
2022/06/24 01:36:43;;;;;;;9.35;3.20;;;;;;;19.32;62.27;100209.17;1723739;80;21051;-58
2022/06/24 01:39:10;;;;;;;6.03;3.15;;;;;;;19.37;62.27;100204.62;1726121;80;21084;-59
2022/06/24 01:41:38;;;;;;;6.15;2.83;;;;;;;19.39;62.21;100209.27;1740229;80;21012;-59
2022/06/24 01:44:05;;;;;;;6.67;3.02;;;;;;;19.38;62.24;100211.08;1734364;80;21105;-58
2022/06/24 01:46:31;;;;;;;6.25;2.98;;;;;;;19.37;62.36;100209.96;1733176;80;21058;-58
2022/06/24 01:48:58;;;;;;;4.55;2.62;;;;;;;19.35;62.65;100202.63;1723983;80;21082;-58
2022/06/24 01:51:25;;;;;;;5.00;2.90;;;;;;;19.34;62.67;100201.80;1726735;82;20997;-59
2022/06/24 01:53:51;;;;;;;6.33;3.15;;;;;;;19.40;62.55;100204.23;1721835;81;21054;-59
2022/06/24 01:56:18;;;;;;;5.35;2.60;;;;;;;19.44;62.50;100199.68;1742165;80;21213;-58
2022/06/24 01:58:45;;;;;;;6.47;2.85;;;;;;;19.45;62.34;100202.68;1730718;80;21082;-58
2022/06/24 02:01:12;;;;;;;5.92;3.50;;;;;;;19.45;62.46;100197.34;1741554;80;21047;-58
2022/06/24 02:03:39;;;;;;;4.90;2.62;;;;;;;19.43;62.62;100200.71;1738824;80;21095;-59
2022/06/24 02:06:09;;;;;;;5.65;3.02;;;;;;;19.41;62.76;100204.05;1672489;83;22215;-59
2022/06/24 02:08:36;;;;;;;5.30;3.12;;;;;;;19.46;62.78;100208.32;1741640;80;21133;-59
2022/06/24 02:13:48;;;;;;;7.25;3.20;;;;;;;19.51;62.81;100205.11;1735362;80;21042;-59
2022/06/24 02:16:16;;;;;;;7.10;3.40;;;;;;;19.49;62.96;100209.29;1730698;80;21047;-59
2022/06/24 02:18:42;;;;;;;6.50;3.50;;;;;;;19.51;63.93;100213.63;1737381;80;21106;-58
2022/06/24 02:21:09;;;;;;;6.05;3.40;;;;;;;19.56;64.05;100211.22;1726881;81;21123;-58
2022/06/24 02:23:35;;;;;;;5.45;3.20;;;;;;;19.63;64.33;100208.12;1735353;80;21070;-59
2022/06/24 02:26:02;;;;;;;6.97;3.55;;;;;;;19.65;64.49;100207.42;1740047;80;21110;-57
2022/06/24 02:28:29;;;;;;;4.95;3.00;;;;;;;19.66;64.83;100199.75;1734562;80;21007;-59
2022/06/24 02:30:58;;;;;;;8.48;3.60;;;;;;;19.66;64.89;100202.42;1740871;80;21058;-57
2022/06/24 02:33:29;;;;;;;5.55;3.47;;;;;;;19.70;65.10;100207.69;1742076;80;21529;-59
2022/06/24 02:35:55;;;;;;;9.33;3.85;;;;;;;19.76;65.12;100204.31;1727263;80;21110;-58
2022/06/24 02:38:22;;;;;;;5.50;3.02;;;;;;;19.79;65.18;100208.47;1741809;80;21106;-58
2022/06/24 02:40:49;;;;;;;5.17;3.12;;;;;;;19.79;65.18;100205.28;1728494;80;21070;-58
2022/06/24 02:43:23;;;;;;;7.00;3.20;;;;;;;19.79;65.25;100207.95;1740864;80;21478;-58
2022/06/24 02:46:09;;;;;;;7.12;3.37;;;;;;;19.82;64.32;100207.58;1737128;80;21744;-59
2022/06/24 02:48:37;;;;;;;5.78;3.35;;;;;;;19.84;64.52;100212.22;1732651;80;21066;-59
2022/06/24 02:51:06;;;;;;;6.15;3.60;;;;;;;19.84;64.15;100210.88;1734477;80;21027;-58
2022/06/24 02:53:33;;;;;;;6.20;3.20;;;;;;;19.85;63.90;100207.70;1733024;80;21015;-59
2022/06/24 02:56:12;;;;;;;7.50;3.60;;;;;;;19.88;63.38;100207.33;1738297;80;21058;-59
2022/06/24 02:58:41;;;;;;;6.45;2.98;;;;;;;19.91;62.71;100204.80;1745937;80;21427;-59
2022/06/24 03:01:07;;;;;;;4.55;2.70;;;;;;;19.90;61.92;100199.13;1748386;80;21035;-58
2022/06/24 03:03:35;;;;;;;6.20;3.17;;;;;;;19.87;61.00;100204.36;1741457;80;21047;-58
2022/06/24 03:06:02;;;;;;;5.83;2.95;;;;;;;19.82;60.13;100190.23;1743925;80;21043;-59
2022/06/24 03:08:29;;;;;;;5.25;3.15;;;;;;;19.81;60.36;100196.57;1746737;80;21090;-59
2022/06/24 03:10:55;;;;;;;7.80;3.02;;;;;;;19.75;59.87;100202.65;1738886;80;21373;-58
2022/06/24 03:13:22;;;;;;;5.65;3.00;;;;;;;19.73;60.02;100200.65;1746915;80;21145;-58
2022/06/24 03:15:49;;;;;;;6.55;2.70;;;;;;;19.76;59.54;100198.98;1750533;80;21110;-59
2022/06/24 03:18:16;;;;;;;5.60;2.90;;;;;;;19.79;59.46;100201.27;1742327;80;21063;-59
2022/06/24 03:20:43;;;;;;;4.67;2.47;;;;;;;19.81;59.06;100203.24;1751963;80;21051;-59
2022/06/24 03:23:10;;;;;;;6.83;2.95;;;;;;;19.80;59.26;100200.76;1736481;80;21124;-59
2022/06/24 03:25:37;;;;;;;6.25;2.33;;;;;;;19.81;58.83;100201.91;1739906;80;21090;-60
2022/06/24 03:28:04;;;;;;;5.33;2.77;;;;;;;19.82;58.18;100203.58;1731517;80;21130;-59
2022/06/24 03:30:32;;;;;;;6.03;2.85;;;;;;;19.81;57.60;100202.42;1741850;80;21046;-58
2022/06/24 03:33:00;;;;;;;4.50;2.25;;;;;;;19.79;56.96;100199.94;1741585;80;21097;-59
2022/06/24 03:35:28;;;;;;;8.20;2.65;;;;;;;19.78;56.67;100201.46;1741323;80;21116;-58
2022/06/24 03:37:54;;;;;;;5.78;2.47;;;;;;;19.72;55.62;100185.66;1732546;80;21015;-59
2022/06/24 03:40:21;;;;;;;5.58;2.25;;;;;;;19.72;55.59;100198.16;1730495;80;21041;-59
2022/06/24 03:42:47;;;;;;;7.03;2.30;;;;;;;19.71;55.98;100198.68;1733997;80;21605;-59
2022/06/24 03:45:14;;;;;;;4.20;2.10;;;;;;;19.67;55.52;100193.41;1736300;80;21019;-59
2022/06/24 03:47:41;;;;;;;5.20;2.60;;;;;;;19.65;55.26;100196.27;1736477;80;21974;-59
2022/06/24 03:50:08;;;;;;;7.40;2.20;;;;;;;19.64;55.20;100197.78;1730219;80;21082;-59
2022/06/24 03:52:35;;;;;;;7.28;2.72;;;;;;;19.64;55.60;100199.94;1747702;80;21078;-59
2022/06/24 03:55:02;;;;;;;4.95;2.30;;;;;;;19.63;55.04;100203.61;1740045;80;21007;-59
2022/06/24 03:57:29;;;;;;;5.53;2.45;;;;;;;19.61;54.81;100213.65;1745571;80;20995;-59
2022/06/24 03:59:56;;;;;;;5.42;2.60;;;;;;;19.63;54.66;100210.80;1749780;80;21226;-59
2022/06/24 04:02:23;;;;;;;6.08;2.20;;;;;;;19.60;54.82;100212.02;1738215;80;21043;-59
2022/06/24 04:04:50;;;;;;;4.58;2.27;;;;;;;19.61;54.60;100219.50;1740132;80;21000;-59
2022/06/24 04:07:18;;;;;;;7.37;2.65;;;;;;;19.62;54.42;100215.31;1738060;80;21081;-59
2022/06/24 04:09:44;;;;;;;6.60;2.85;;;;;;;19.62;54.92;100218.50;1737400;80;21228;-58
2022/06/24 04:12:11;;;;;;;5.92;2.35;;;;;;;19.62;53.96;100217.16;1732332;80;21121;-59
2022/06/24 04:17:23;;;;;;;9.13;3.20;;;;;;;19.69;54.36;100218.06;1741263;80;21067;-59
2022/06/24 04:19:52;;;;;;;7.35;2.37;;;;;;;19.67;54.36;100225.44;1744987;80;21012;-59
2022/06/24 04:22:19;;;;;;;6.75;2.72;;;;;;;19.73;54.06;100217.19;1744434;80;21073;-59
2022/06/24 04:24:46;;;;;;;6.45;2.25;;;;;;;19.78;53.92;100219.63;1748419;80;21189;-59
2022/06/24 04:27:12;;;;;;;5.67;2.52;;;;;;;19.82;53.76;100222.27;1740030;80;21332;-58
2022/06/24 04:29:39;;;;;;;6.60;2.50;;;;;;;19.83;54.12;100217.23;1746513;80;21296;-60
2022/06/24 04:32:07;;;;;;;6.28;2.70;;;;;;;19.86;53.63;100215.52;1736711;80;21098;-60
2022/06/24 04:34:37;;;;;;;8.08;2.52;;;;;;;19.92;54.01;100217.97;1746011;81;21066;-60
2022/06/24 04:37:05;;;;;;;5.40;2.22;;;;;;;19.96;53.49;100221.09;1740000;80;21080;-60
2022/06/24 04:39:32;;;;;;;5.37;2.67;;;;;;;20.00;53.40;100219.68;1743456;80;21101;-60
2022/06/24 04:41:59;;;;;;;5.58;2.80;;;;;;;20.04;52.86;100232.99;1743831;80;21021;-60
2022/06/24 04:44:25;;;;;;;7.08;2.72;;;;;;;20.11;53.27;100230.39;1743986;80;21078;-59
2022/06/24 04:46:52;;;;;;;5.00;2.92;;;;;;;20.11;52.79;100239.22;1750290;80;21110;-59
2022/06/24 04:49:18;;;;;;;6.60;2.70;;;;;;;20.14;52.47;100238.85;1752179;80;21121;-59
2022/06/24 04:51:46;;;;;;;5.15;2.08;;;;;;;20.18;52.79;100238.78;1737256;80;21114;-60
2022/06/24 04:54:13;;;;;;;5.60;2.80;;;;;;;20.16;52.97;100244.01;1733778;80;21672;-59
2022/06/24 04:56:40;;;;;;;5.78;2.50;;;;;;;20.19;52.71;100238.26;1725641;80;21714;-60
2022/06/24 04:59:07;;;;;;;7.97;3.37;;;;;;;20.21;52.46;100241.59;1727350;80;21137;-60
2022/06/24 05:01:33;;;;;;;4.30;2.55;;;;;;;20.21;52.84;100241.08;1727109;80;21144;-59
2022/06/24 05:04:00;;;;;;;5.33;2.65;;;;;;;20.22;52.34;100241.41;1693174;82;21391;-59
2022/06/24 05:06:29;;;;;;;5.62;2.65;;;;;;;20.27;52.52;100242.67;1730327;80;21067;-58
2022/06/24 05:08:57;;;;;;;5.35;2.50;;;;;;;20.25;52.80;100244.71;1729699;80;21478;-59
2022/06/24 05:11:23;;;;;;;5.70;2.70;;;;;;;20.21;52.71;100245.09;1729403;80;22544;-59
2022/06/24 05:13:50;;;;;;;4.97;2.70;;;;;;;20.23;52.67;100248.39;1732851;80;22871;-58
2022/06/24 05:16:17;;;;;;;6.50;3.17;;;;;;;20.14;52.83;100252.20;1736383;80;21553;-59
2022/06/24 05:18:44;;;;;;;6.20;2.77;;;;;;;20.15;52.81;100247.16;1730150;80;21027;-59
2022/06/24 05:21:10;;;;;;;10.20;3.22;;;;;;;20.20;52.78;100250.09;1735322;80;21086;-59
2022/06/24 05:23:37;;;;;;;6.62;2.35;;;;;;;20.28;52.24;100248.34;1734008;80;21138;-60
2022/06/24 05:26:04;;;;;;;8.13;2.62;;;;;;;20.36;52.60;100258.39;1735896;80;21082;-59
2022/06/24 05:28:30;;;;;;;4.80;2.80;;;;;;;20.39;52.02;100246.48;1727774;80;21090;-60
2022/06/24 05:30:57;;;;;;;5.97;2.47;;;;;;;20.48;51.94;100250.70;1726318;80;21098;-59
2022/06/24 05:33:24;;;;;;;13.20;2.75;;;;;;;20.53;52.46;100257.63;1733688;82;21321;-59
2022/06/24 05:35:54;;;;;;;7.62;3.30;;;;;;;20.60;51.44;100254.50;1737649;80;21118;-59
2022/06/24 05:38:22;;;;;;;4.97;2.72;;;;;;;20.61;51.70;100260.70;1734202;80;21114;-60
2022/06/24 05:40:50;;;;;;;6.47;2.52;;;;;;;20.62;51.27;100261.52;1733538;80;21047;-59
2022/06/24 05:43:17;;;;;;;4.95;2.50;;;;;;;20.65;51.59;100259.83;1732928;80;21055;-59
2022/06/24 05:45:45;;;;;;;7.08;2.62;;;;;;;20.65;51.20;100266.00;1732952;80;21073;-60
2022/06/24 05:48:11;;;;;;;6.55;3.33;;;;;;;20.68;51.73;100271.45;1732352;80;21051;-59
2022/06/24 05:50:38;;;;;;;5.35;2.45;;;;;;;20.70;51.45;100275.61;1734425;81;21232;-59
2022/06/24 05:55:56;;;;;;;7.72;3.00;;;;;;;20.81;51.70;100281.45;1730089;80;21032;-60
2022/06/24 05:58:25;;;;;;;7.62;3.00;;;;;;;20.88;51.58;100275.64;1717009;82;21119;-60
2022/06/24 06:00:54;;;;;;;6.60;2.37;;;;;;;20.94;51.26;100282.38;1730259;80;21127;-59
2022/06/24 06:03:22;;;;;;;5.70;2.77;;;;;;;21.02;51.77;100289.45;1722916;80;21045;-59
2022/06/24 06:05:49;;;;;;;7.35;2.30;;;;;;;21.09;51.38;100290.84;1727821;80;21635;-60
2022/06/24 06:08:16;;;;;;;5.67;2.72;;;;;;;21.15;51.34;100294.09;1725193;80;21141;-58
2022/06/24 06:10:44;;;;;;;7.05;2.52;;;;;;;21.18;51.05;100290.19;1727992;80;21692;-58
2022/06/24 06:13:12;;;;;;;5.47;2.85;;;;;;;21.24;51.15;100287.55;1725274;80;21087;-59
2022/06/24 06:15:40;;;;;;;4.83;3.08;;;;;;;21.17;51.29;100285.34;1734032;80;21117;-58
2022/06/24 06:18:07;;;;;;;7.60;3.50;;;;;;;21.12;50.71;100289.94;1731607;80;21130;-57
2022/06/24 06:20:34;;;;;;;5.47;2.12;;;;;;;21.18;51.40;100280.81;1724888;80;21081;-60
2022/06/24 06:23:00;;;;;;;7.78;2.77;;;;;;;21.21;51.65;100284.45;1740566;80;21347;-62
2022/06/24 06:25:27;;;;;;;6.55;2.65;;;;;;;21.25;51.13;100284.36;1722666;80;21066;-60
2022/06/24 06:27:53;;;;;;;6.62;3.20;;;;;;;21.29;50.68;100285.64;1723873;80;21078;-57
2022/06/24 06:30:20;;;;;;;8.93;4.03;;;;;;;21.29;50.88;100288.31;1724978;80;21060;-60
2022/06/24 06:32:46;;;;;;;8.50;3.02;;;;;;;21.30;50.96;100285.45;1732274;80;21094;-59
2022/06/24 06:35:13;;;;;;;9.95;2.90;;;;;;;21.32;50.98;100285.25;1725212;80;21075;-60
2022/06/24 06:37:40;;;;;;;7.03;3.33;;;;;;;21.36;51.25;100291.85;1753841;80;21133;-61
2022/06/24 06:40:08;;;;;;;8.03;2.87;;;;;;;21.39;51.25;100298.67;1726046;82;21138;-60
2022/06/24 06:42:35;;;;;;;6.28;2.90;;;;;;;21.40;51.80;100302.50;1727552;80;21063;-59
2022/06/24 06:45:05;;;;;;;8.88;3.10;;;;;;;21.43;51.75;100299.41;1721559;80;20977;-59
2022/06/24 06:47:33;;;;;;;5.33;2.98;;;;;;;21.47;51.92;100302.05;1733499;80;21034;-57
2022/06/24 06:50:00;;;;;;;5.75;2.70;;;;;;;21.54;51.19;100297.27;1738518;81;21063;-58
2022/06/24 06:52:27;;;;;;;5.92;2.92;;;;;;;21.61;51.27;100304.81;1732952;80;21187;-59
2022/06/24 06:54:53;;;;;;;5.87;3.12;;;;;;;21.72;51.21;100301.59;1736692;80;22484;-57
2022/06/24 06:57:19;;;;;;;5.05;2.80;;;;;;;21.79;50.59;100301.63;1733608;80;21000;-57
2022/06/24 06:59:48;;;;;;;7.37;3.40;;;;;;;21.76;50.75;100305.50;1726197;80;21062;-60
2022/06/24 07:02:14;;;;;;;5.58;2.52;;;;;;;21.78;50.60;100303.97;1726396;80;21142;-60
2022/06/24 07:04:41;;;;;;;6.28;2.83;;;;;;;21.82;50.97;100309.23;1728569;80;21138;-60
2022/06/24 07:07:09;;;;;;;6.50;2.92;;;;;;;21.86;50.38;100311.84;1715564;80;21020;-60
2022/06/24 07:09:36;;;;;;;5.42;2.77;;;;;;;21.89;50.54;100313.61;1732893;80;21083;-60
2022/06/24 07:12:03;;;;;;;9.08;3.40;;;;;;;21.93;50.92;100311.36;1716052;80;21078;-61
2022/06/24 07:14:30;;;;;;;6.67;3.27;;;;;;;21.95;49.96;100302.59;1726104;80;21114;-59
2022/06/24 07:16:57;;;;;;;9.93;3.92;;;;;;;21.95;50.06;100303.94;1729223;80;21145;-59
2022/06/24 07:19:24;;;;;;;6.20;3.08;;;;;;;21.95;49.98;100303.94;1726837;80;21055;-60
2022/06/24 07:21:50;;;;;;;5.80;3.17;;;;;;;21.97;50.71;100309.95;1722742;80;21958;-60
2022/06/24 07:24:17;;;;;;;6.87;3.40;;;;;;;22.03;51.15;100306.45;1723634;80;21921;-60
2022/06/24 07:26:43;;;;;;;7.33;2.85;;;;;;;22.13;51.15;100309.28;1736282;81;21086;-59
2022/06/24 07:29:10;;;;;;;6.35;3.70;;;;;;;22.21;50.81;100306.43;1723015;80;21912;-60
2022/06/24 07:31:36;;;;;;;9.88;3.67;;;;;;;22.27;50.04;100300.24;1734173;80;21830;-60
2022/06/24 07:34:04;;;;;;;6.17;3.60;;;;;;;22.33;49.94;100308.86;1715824;80;21058;-60
2022/06/24 07:36:32;;;;;;;7.40;3.90;;;;;;;22.36;49.99;100307.12;1736759;80;21086;-59
2022/06/24 07:38:59;;;;;;;9.70;3.60;;;;;;;22.38;49.28;100298.88;1739214;80;21051;-60
2022/06/24 07:41:25;;;;;;;7.90;3.50;;;;;;;22.41;49.47;100297.14;1714808;80;21128;-60
2022/06/24 07:43:52;;;;;;;7.75;3.02;;;;;;;22.47;49.93;100303.53;1740455;80;21043;-60
2022/06/24 07:46:18;;;;;;;6.67;3.17;;;;;;;22.53;50.19;100306.75;1722129;81;21054;-61
2022/06/24 07:48:45;;;;;;;6.90;2.90;;;;;;;22.58;49.80;100308.30;1739088;80;21047;-59
2022/06/24 07:51:14;;;;;;;8.23;3.42;;;;;;;22.61;49.61;100307.38;1724827;80;21321;-58
2022/06/24 07:53:41;;;;;;;7.55;3.45;;;;;;;22.63;49.47;100309.86;1732078;80;21117;-58
2022/06/24 07:58:54;;;;;;;6.75;3.33;;;;;;;22.59;49.12;100304.58;1741753;80;21134;-58
2022/06/24 08:01:20;;;;;;;6.72;4.28;;;;;;;22.56;48.82;100304.98;1751855;80;21102;-59
2022/06/24 08:03:47;;;;;;;5.92;3.62;;;;;;;22.55;49.17;100300.66;1745555;80;21065;-62
2022/06/24 08:19:35;;;;;;;7.90;2.87;;;;;;;23.43;46.17;100283.54;1767047;78;22759;-49
2022/06/24 08:22:03;;;;;;;7.70;3.25;;;;;;;23.58;45.58;100286.80;1748331;80;21049;-48
2022/06/24 08:24:29;;;;;;;7.33;3.60;;;;;;;23.57;46.02;100287.86;1755745;80;22316;-47
2022/06/24 08:26:56;;;;;;;6.60;3.40;;;;;;;23.53;46.51;100297.35;1750513;80;21099;-48
2022/06/24 08:29:23;;;;;;;5.78;3.20;;;;;;;23.51;46.02;100288.16;1746737;80;20983;-48
2022/06/24 08:31:49;;;;;;;9.08;4.00;;;;;;;23.45;44.89;100266.70;1752130;80;21047;-48
2022/06/24 08:34:17;;;;;;;7.05;3.47;;;;;;;23.39;45.47;100298.43;1749436;81;21177;-48
2022/06/24 08:36:44;;;;;;;5.62;3.33;;;;;;;23.31;46.12;100294.09;1751964;80;21792;-50
2022/06/24 08:39:10;;;;;;;6.33;3.50;;;;;;;23.24;45.41;100291.42;1753421;80;20935;-49
2022/06/24 08:41:38;;;;;;;6.90;3.50;;;;;;;23.18;45.85;100293.09;1754326;80;21068;-50
2022/06/24 08:44:04;;;;;;;6.58;3.67;;;;;;;23.11;46.36;100292.77;1742505;80;21023;-49
2022/06/24 08:46:32;;;;;;;8.43;4.12;;;;;;;23.05;46.08;100293.06;1756370;81;21058;-50
2022/06/24 08:48:59;;;;;;;8.15;3.75;;;;;;;23.02;46.41;100296.16;1753054;80;21131;-50
2022/06/24 08:51:26;;;;;;;6.50;3.45;;;;;;;22.98;46.06;100290.88;1753337;81;21015;-54
2022/06/24 08:53:57;;;;;;;5.10;2.72;;;;;;;22.96;46.68;100295.63;1753137;80;21082;-53
2022/06/24 08:56:24;;;;;;;6.95;3.65;;;;;;;23.02;46.11;100291.31;1728448;81;21107;-52
2022/06/24 08:58:51;;;;;;;6.00;2.92;;;;;;;22.96;46.76;100293.80;1727256;81;21070;-54
2022/06/24 09:01:17;;;;;;;8.58;4.37;;;;;;;22.96;46.86;100284.90;1725516;82;21109;-51
2022/06/24 09:03:44;;;;;;;9.38;3.80;;;;;;;23.03;46.91;100295.63;1727882;81;21078;-52
2022/06/24 09:06:16;;;;;;;6.40;3.55;;;;;;;23.13;46.55;100287.52;1729880;81;21056;-51
2022/06/24 09:08:49;;;;;;;6.03;4.45;;;;;;;23.27;46.48;100286.98;1729255;81;21343;-50
2022/06/24 09:11:16;;;;;;;7.97;3.95;;;;;;;23.42;46.46;100279.19;1750583;80;21559;-50
2022/06/24 09:13:52;;;;;;;6.33;3.58;;;;;;;23.57;46.67;100279.80;1752426;80;21135;-48
2022/06/24 09:16:20;;;;;;;7.58;3.58;;;;;;;23.71;45.53;100269.30;1718433;83;21103;-50
2022/06/24 09:18:56;;;;;;;7.55;5.08;;;;;;;23.85;45.97;100274.66;1725890;80;21657;-50
2022/06/24 09:21:24;;;;;;;;;;;;;;;23.93;43.79;100255.61;1747144;80;21070;-49
2022/06/24 09:23:52;;;;;;;7.92;3.77;;;;;;;24.00;43.92;100265.80;1753463;80;20232;-49
2022/06/24 09:26:36;;;;;;;7.05;4.40;;;;;;;24.09;43.99;100268.56;1748194;80;21412;-50
2022/06/24 09:29:06;;;;;;;6.62;4.33;;;;;;;24.23;45.19;100272.52;1752563;80;21084;-50
2022/06/24 09:31:34;;;;;;;8.80;4.20;;;;;;;24.40;44.00;100262.08;1742162;80;21108;-50
2022/06/24 09:34:14;;;;;;;6.25;3.20;;;;;;;24.56;44.35;100266.12;1714297;81;21061;-51
2022/06/24 09:36:43;;;;;;;5.70;3.77;;;;;;;24.72;43.66;100256.70;1716305;81;21032;-51
2022/06/24 09:39:13;;;;;;;10.20;3.47;;;;;;;24.89;44.20;100257.79;1730575;81;21115;-50
2022/06/24 09:41:53;;;;;;;9.68;3.85;;;;;;;25.02;43.45;100260.90;1747010;80;21094;-49
2022/06/24 09:44:20;;;;;;;7.35;4.03;;;;;;;25.10;42.57;100267.34;1746153;81;21507;-51
2022/06/24 09:46:46;;;;;;;6.72;3.60;;;;;;;25.14;41.87;100255.61;1724832;81;21121;-51
2022/06/24 09:49:15;;;;;;;8.23;3.85;;;;;;;25.13;41.68;100257.48;1742532;80;21114;-51
2022/06/24 09:51:47;;;;;;;7.10;4.87;;;;;;;25.15;42.44;100262.62;1745316;80;21188;-50
2022/06/24 09:54:12;;;;;;;7.37;3.87;;;;;;;25.12;41.45;100267.94;1752820;80;21050;-51
2022/06/24 09:56:39;;;;;;;8.18;4.33;;;;;;;25.11;40.50;100273.55;1748393;80;21090;-51
2022/06/24 10:01:52;;;;;;;6.20;3.90;;;;;;;25.05;40.06;100267.19;1696804;81;21074;-49
2022/06/24 10:04:19;;;;;;;12.50;3.45;;;;;;;25.11;40.24;100261.43;1722070;83;21777;-49
2022/06/24 10:06:49;;;;;;;6.15;3.00;;;;;;;25.12;40.49;100256.36;1746713;80;21441;-50
2022/06/24 10:09:21;;;;;;;7.60;3.17;;;;;;;25.15;40.60;100255.39;1722343;81;21137;-50
2022/06/24 10:11:49;;;;;;;7.03;3.40;;;;;;;25.17;41.07;100256.52;1739474;80;21048;-51
2022/06/24 10:14:15;;;;;;;6.35;2.98;;;;;;;25.17;41.07;100257.86;1737022;80;21179;-50
2022/06/24 10:16:43;;;;;;;6.87;2.83;;;;;;;25.16;41.49;100262.94;1722972;81;21495;-52
2022/06/24 10:19:10;;;;;;;5.75;2.90;;;;;;;25.12;41.69;100267.13;1720636;81;21504;-53
2022/06/24 10:21:37;;;;;;;5.78;3.30;;;;;;;25.08;42.31;100268.59;1751219;80;21070;-51
2022/06/24 10:24:12;;;;;;;8.00;3.27;;;;;;;25.04;42.67;100266.88;1723314;81;21172;-51
2022/06/24 10:26:40;;;;;;;6.80;4.10;;;;;;;24.99;42.60;100270.22;1752546;80;21094;-51
2022/06/24 10:29:17;;;;;;;7.50;3.50;;;;;;;24.96;42.38;100264.46;1752197;80;21201;-53
2022/06/24 10:31:53;;;;;;;6.97;3.92;;;;;;;24.94;42.32;100264.68;1748416;80;21055;-50
2022/06/24 10:34:33;;;;;;;8.53;3.98;;;;;;;24.95;41.63;100258.27;1745618;80;21538;-49
2022/06/24 10:37:21;;;;;;;5.75;3.40;;;;;;;25.00;41.67;100250.34;1744184;80;21116;-49
2022/06/24 10:39:53;;;;;;;5.80;3.75;;;;;;;25.04;41.62;100251.54;1751444;80;20990;-49
2022/06/24 10:42:21;;;;;;;6.10;4.10;;;;;;;25.09;41.88;100252.77;1740951;80;21770;-51
2022/06/24 10:44:59;;;;;;;10.05;4.22;;;;;;;25.14;41.51;100253.73;1750465;80;21106;-49
2022/06/24 10:47:36;;;;;;;8.35;4.37;;;;;;;25.19;40.88;100245.81;1751258;80;21695;-49
2022/06/24 10:50:13;;;;;;;6.35;3.77;;;;;;;25.24;40.66;100242.98;1747878;80;21592;-49
2022/06/24 10:52:50;;;;;;;6.33;3.55;;;;;;;25.26;41.24;100239.55;1719422;81;21070;-50
2022/06/24 10:55:29;;;;;;;8.70;3.83;;;;;;;25.26;41.11;100244.42;1748776;80;23034;-50
2022/06/24 10:58:08;;;;;;;7.00;3.27;;;;;;;25.29;41.21;100250.72;1745810;80;21003;-50
2022/06/24 11:00:47;;;;;;;9.90;4.15;;;;;;;25.34;41.59;100246.83;1745548;80;21510;-49
2022/06/24 11:03:12;;;;;;;5.55;3.52;;;;;;;25.47;42.00;100243.68;1744594;80;21113;-49
2022/06/24 11:05:45;;;;;;;7.30;3.62;;;;;;;25.63;42.44;100237.69;1719608;81;21081;-52
2022/06/24 11:08:20;;;;;;;5.40;3.37;;;;;;;25.81;41.69;100236.05;1720834;81;21146;-50
2022/06/24 11:10:51;;;;;;;6.58;3.58;;;;;;;25.90;39.45;100234.13;1752210;80;21082;-51
2022/06/24 11:13:21;;;;;;;6.08;3.90;;;;;;;25.91;39.70;100233.09;1752076;80;21029;-51
2022/06/24 11:15:58;;;;;;;6.50;4.08;;;;;;;25.88;39.56;100234.08;1724479;81;21053;-50
2022/06/24 11:18:31;;;;;;;7.50;4.75;;;;;;;25.78;39.75;100233.27;1762976;80;21003;-51
2022/06/24 11:21:01;;;;;;;7.83;4.28;;;;;;;25.63;40.21;100236.34;1764419;79;21141;-50
2022/06/24 11:23:32;;;;;;;8.65;4.10;;;;;;;25.56;41.42;100243.69;1763024;80;20983;-49
2022/06/24 11:26:12;;;;;;;5.67;3.35;;;;;;;25.54;41.88;100240.41;1770565;79;21022;-49
2022/06/24 11:28:40;;;;;;;6.60;3.77;;;;;;;25.50;40.82;100235.16;1771408;79;21018;-50
2022/06/24 11:31:26;;;;;;;5.62;3.50;;;;;;;25.48;40.04;100236.72;1763888;79;21183;-50
2022/06/24 11:34:04;;;;;;;6.22;4.12;;;;;;;25.53;40.92;100237.41;1762097;81;21102;-50
2022/06/24 11:36:32;;;;;;;7.17;3.85;;;;;;;25.68;40.24;100229.75;1758233;80;21011;-50
2022/06/24 11:39:02;;;;;;;13.30;4.15;;;;;;;25.84;40.54;100229.67;1763782;80;21049;-50
2022/06/24 11:41:35;;;;;;;8.73;4.62;;;;;;;25.95;40.07;100224.86;1759661;80;21539;-50
2022/06/24 11:44:01;;;;;;;6.53;3.85;;;;;;;26.06;40.48;100225.98;1730909;81;21109;-50
2022/06/24 11:46:28;;;;;;;7.25;3.85;;;;;;;26.14;39.77;100232.39;1729085;81;22297;-50
2022/06/24 11:49:12;;;;;;;6.95;4.30;;;;;;;26.25;38.92;100211.89;1756289;79;21540;-49
2022/06/24 11:51:39;;;;;;;5.85;3.75;;;;;;;26.37;38.39;100213.27;1758109;80;21110;-50
2022/06/24 11:54:08;;;;;;;5.78;3.22;;;;;;;26.40;38.30;100218.20;1763479;80;21080;-50
2022/06/24 11:56:39;;;;;;;9.35;3.75;;;;;;;26.37;37.55;100217.31;1754311;80;21023;-50
2022/06/24 11:59:07;;;;;;;7.90;3.85;;;;;;;26.35;37.78;100212.69;1758264;81;21139;-49